Time;durP1;ratioP1;P1;durP2;ratioP2;P2;SDS_P1;SDS_P2;PMS_P1;PMS_P2;Temp;Humidity;BMP_temperature;BMP_pressure;BME280_temperature;BME280_humidity;BME280_pressure;Samples;Min_cycle;Max_cycle;Signal;HPM_P1;HPM_P2
2021/05/19 00:00:17;;;;;;;9.00;6.57;;;;;;;10.49;65.32;100748.16;689313;28;23403;-63
2021/05/19 00:00:39;;;;;;;7.25;5.80;;;;;;;10.48;65.37;100745.63;688397;28;44740;-62
2021/05/19 00:01:00;;;;;;;7.90;5.82;;;;;;;10.46;65.30;100749.34;687721;28;44523;-62
2021/05/19 00:01:21;;;;;;;6.82;5.85;;;;;;;10.45;65.63;100747.69;687536;28;4753;-63
2021/05/19 00:01:44;;;;;;;9.48;5.78;;;;;;;10.45;65.69;100742.28;687052;28;19693;-63
2021/05/19 00:02:05;;;;;;;9.93;5.80;;;;;;;10.43;65.39;100744.28;685135;28;64755;-63
2021/05/19 00:02:27;;;;;;;6.28;5.68;;;;;;;10.43;65.48;100740.75;686919;28;17543;-62
2021/05/19 00:02:48;;;;;;;6.50;5.47;;;;;;;10.44;65.43;100745.97;685946;28;46403;-63
2021/05/19 00:03:09;;;;;;;8.07;5.90;;;;;;;10.42;65.29;100742.63;686990;28;20427;-63
2021/05/19 00:03:30;;;;;;;7.57;5.95;;;;;;;10.42;65.80;100749.88;686822;28;23445;-62
2021/05/19 00:03:54;;;;;;;6.43;5.70;;;;;;;10.43;65.75;100747.00;689867;28;967;-62
2021/05/19 00:04:17;;;;;;;7.45;5.75;;;;;;;10.43;65.33;100748.84;689495;28;14776;-63
2021/05/19 00:04:38;;;;;;;7.32;5.57;;;;;;;10.42;65.21;100742.63;689395;28;7440;-63
2021/05/19 00:04:59;;;;;;;7.75;5.80;;;;;;;10.42;65.59;100749.88;689273;28;23503;-62
2021/05/19 00:05:21;;;;;;;6.80;6.10;;;;;;;10.42;65.21;100747.16;689310;28;5960;-62
2021/05/19 00:05:43;;;;;;;6.93;6.20;;;;;;;10.40;65.11;100750.03;689393;28;889;-63
2021/05/19 00:06:04;;;;;;;7.55;5.72;;;;;;;10.40;65.32;100746.50;687061;28;19014;-62
2021/05/19 00:06:25;;;;;;;8.93;5.50;;;;;;;10.38;65.35;100752.09;687570;28;5621;-62
2021/05/19 00:06:47;;;;;;;6.60;5.60;;;;;;;10.37;65.53;100747.69;687382;28;8139;-63
2021/05/19 00:07:08;;;;;;;7.55;6.10;;;;;;;10.36;65.32;100746.03;686252;28;35737;-62
2021/05/19 00:07:29;;;;;;;8.10;6.03;;;;;;;10.35;65.24;100741.63;689766;28;12516;-62
2021/05/19 00:07:50;;;;;;;7.75;5.97;;;;;;;10.37;65.17;100741.47;689034;28;22188;-62
2021/05/19 00:08:11;;;;;;;8.73;5.80;;;;;;;10.35;65.51;100741.63;689167;28;20037;-62
2021/05/19 00:08:32;;;;;;;6.80;5.65;;;;;;;10.34;65.51;100753.44;689216;28;2346;-62
2021/05/19 00:08:54;;;;;;;7.10;6.07;;;;;;;10.32;65.50;100736.56;689965;28;905;-62
2021/05/19 00:09:15;;;;;;;8.52;6.15;;;;;;;10.31;65.28;100750.22;686104;28;22400;-62
2021/05/19 00:09:36;;;;;;;7.28;5.90;;;;;;;10.29;65.42;100748.53;685551;28;34227;-62
2021/05/19 00:09:57;;;;;;;6.47;5.47;;;;;;;10.27;65.25;100745.16;686939;28;20847;-62
2021/05/19 00:10:19;;;;;;;6.32;5.50;;;;;;;10.26;65.47;100748.03;686527;28;22480;-62
2021/05/19 00:10:40;;;;;;;7.07;5.70;;;;;;;10.25;65.51;100747.22;686758;28;22394;-62
2021/05/19 00:11:01;;;;;;;7.50;5.82;;;;;;;10.25;65.43;100749.06;686160;28;43357;-62
2021/05/19 00:11:22;;;;;;;6.13;5.53;;;;;;;10.23;65.19;100746.53;687044;28;22269;-61
2021/05/19 00:11:45;;;;;;;6.28;5.47;;;;;;;10.21;65.17;100743.16;686895;28;22404;-61
2021/05/19 00:12:07;;;;;;;6.45;5.80;;;;;;;10.22;65.15;100752.09;685511;28;69373;-63
2021/05/19 00:12:28;;;;;;;8.30;5.90;;;;;;;10.19;65.25;100752.47;686128;28;46154;-61
2021/05/19 00:12:49;;;;;;;8.18;6.28;;;;;;;10.17;65.51;100741.00;687040;28;22394;-62
2021/05/19 00:13:11;;;;;;;7.18;5.88;;;;;;;10.15;65.50;100751.13;686959;28;21555;-62
2021/05/19 00:13:34;;;;;;;7.30;6.22;;;;;;;10.13;65.42;100748.59;685731;28;44409;-63
2021/05/19 00:13:55;;;;;;;8.88;6.13;;;;;;;10.14;65.28;100741.34;685474;28;69472;-63
2021/05/19 00:14:17;;;;;;;7.55;5.88;;;;;;;10.12;65.48;100746.91;686999;28;21539;-63
2021/05/19 00:14:38;;;;;;;8.25;6.10;;;;;;;10.10;65.61;100748.94;685705;28;45320;-62
2021/05/19 00:15:00;;;;;;;8.65;6.18;;;;;;;10.07;65.38;100750.13;686778;28;22399;-63
2021/05/19 00:15:21;;;;;;;9.55;6.40;;;;;;;10.05;65.51;100743.25;686670;28;23414;-62
2021/05/19 00:15:42;;;;;;;7.97;6.50;;;;;;;10.01;65.74;100742.72;686980;28;22478;-62
2021/05/19 00:16:06;;;;;;;8.10;6.18;;;;;;;9.99;65.89;100742.06;687103;28;21519;-63
2021/05/19 00:16:27;;;;;;;7.15;5.85;;;;;;;9.98;65.90;100740.38;686287;28;36166;-63
2021/05/19 00:16:49;;;;;;;8.18;6.00;;;;;;;9.98;66.19;100740.38;687544;28;1820;-62
2021/05/19 00:17:10;;;;;;;9.27;6.68;;;;;;;9.98;66.18;100751.16;686715;28;38388;-62
2021/05/19 00:17:39;;;;;;;10.93;6.88;;;;;;;9.97;66.05;100745.94;686903;28;22387;-61
2021/05/19 00:18:01;;;;;;;7.85;6.60;;;;;;;9.96;66.28;100746.97;685398;28;61534;-62
2021/05/19 00:18:22;;;;;;;9.50;6.57;;;;;;;9.97;66.20;100743.25;687181;28;20284;-62
2021/05/19 00:18:44;;;;;;;9.65;6.53;;;;;;;9.96;66.23;100745.13;685920;28;45813;-62
2021/05/19 00:19:05;;;;;;;9.80;6.30;;;;;;;9.93;66.10;100746.28;686766;28;23498;-61
2021/05/19 00:19:26;;;;;;;10.02;6.63;;;;;;;9.91;66.40;100752.88;687169;28;8087;-62
2021/05/19 00:19:51;;;;;;;8.50;6.95;;;;;;;9.89;66.28;100747.66;689752;28;12780;-63
2021/05/19 00:20:14;;;;;;;8.77;6.78;;;;;;;9.89;66.49;100752.19;687497;28;69463;-62
2021/05/19 00:20:36;;;;;;;9.38;6.70;;;;;;;9.86;66.62;100758.81;687514;28;69548;-62
2021/05/19 00:20:57;;;;;;;9.65;6.05;;;;;;;9.86;66.34;100755.28;689307;28;22485;-62
2021/05/19 00:21:18;;;;;;;7.53;6.07;;;;;;;9.87;66.42;100752.41;690112;28;2877;-62
2021/05/19 00:21:40;;;;;;;7.40;5.75;;;;;;;9.86;66.56;100753.41;688662;28;6176;-63
2021/05/19 00:22:01;;;;;;;6.43;5.50;;;;;;;9.84;66.32;100751.88;686514;28;33327;-61
2021/05/19 00:22:22;;;;;;;6.22;5.32;;;;;;;9.85;66.12;100751.72;687790;28;910;-62
2021/05/19 00:22:43;;;;;;;6.88;5.45;;;;;;;9.84;66.44;100754.56;686765;28;23375;-63
2021/05/19 00:23:04;;;;;;;8.43;5.40;;;;;;;9.84;66.33;100760.84;687065;28;23486;-62
2021/05/19 00:23:25;;;;;;;7.38;5.75;;;;;;;9.85;66.49;100757.09;687056;28;14389;-63
2021/05/19 00:23:46;;;;;;;7.22;5.63;;;;;;;9.84;66.30;100758.16;686678;28;35348;-63
2021/05/19 00:24:08;;;;;;;7.57;5.72;;;;;;;9.84;66.00;100751.88;687358;28;15100;-62
2021/05/19 00:24:30;;;;;;;7.93;5.70;;;;;;;9.83;66.52;100761.84;686855;28;23438;-62
2021/05/19 00:24:51;;;;;;;8.07;5.43;;;;;;;9.83;66.45;100752.91;686072;28;38187;-62
2021/05/19 00:25:12;;;;;;;7.22;5.63;;;;;;;9.81;66.24;100755.78;686477;28;23514;-62
2021/05/19 00:25:33;;;;;;;6.13;5.53;;;;;;;9.79;66.16;100754.25;686012;28;46568;-62
2021/05/19 00:25:55;;;;;;;5.90;5.30;;;;;;;9.78;66.22;100757.97;687078;28;23519;-62
2021/05/19 00:26:17;;;;;;;5.80;4.95;;;;;;;9.75;66.66;100756.47;687422;28;13480;-62
2021/05/19 00:26:38;;;;;;;6.10;5.35;;;;;;;9.73;66.28;100759.34;687492;28;987;-62
2021/05/19 00:26:59;;;;;;;8.25;5.32;;;;;;;9.72;66.31;100768.44;686797;28;14630;-62
2021/05/19 00:27:21;;;;;;;7.40;5.38;;;;;;;9.71;66.53;100758.66;687501;28;902;-62
2021/05/19 00:27:42;;;;;;;6.32;5.57;;;;;;;9.70;66.81;100765.06;686010;28;42564;-62
2021/05/19 00:28:04;;;;;;;5.65;5.15;;;;;;;9.71;66.34;100760.50;686920;28;21669;-62
2021/05/19 00:28:26;;;;;;;6.13;5.35;;;;;;;9.69;66.53;100765.25;685820;28;46461;-62
2021/05/19 00:28:51;;;;;;;5.93;5.25;;;;;;;9.67;66.32;100760.00;685751;28;46543;-63
2021/05/19 00:29:13;;;;;;;6.60;5.30;;;;;;;9.64;66.56;100762.19;683273;28;115097;-63
2021/05/19 00:29:34;;;;;;;5.75;5.20;;;;;;;9.61;67.01;100762.53;686131;28;32141;-63
2021/05/19 00:29:55;;;;;;;5.85;5.18;;;;;;;9.60;66.71;100766.25;687427;28;11436;-63
2021/05/19 00:30:20;;;;;;;6.25;5.20;;;;;;;9.57;66.97;100762.03;686621;28;22477;-63
2021/05/19 00:30:41;;;;;;;5.38;4.80;;;;;;;9.55;67.15;100764.06;683662;28;116140;-62
2021/05/19 00:31:04;;;;;;;6.72;5.10;;;;;;;9.52;67.08;100759.03;687214;28;22415;-63
2021/05/19 00:31:29;;;;;;;6.90;5.13;;;;;;;9.49;67.40;100756.66;686917;28;90798;-61
2021/05/19 00:31:51;;;;;;;7.40;5.50;;;;;;;9.47;67.28;100762.22;685431;28;112649;-62
2021/05/19 00:32:13;;;;;;;6.75;5.53;;;;;;;9.45;67.70;100761.56;688447;28;45272;-62
2021/05/19 00:32:34;;;;;;;5.30;4.80;;;;;;;9.44;67.31;100770.66;689849;28;1224;-62
2021/05/19 00:32:55;;;;;;;7.15;5.20;;;;;;;9.44;67.45;100761.72;688717;28;1250;-61
2021/05/19 00:33:16;;;;;;;7.97;5.20;;;;;;;9.43;67.68;100758.16;687636;28;22232;-61
2021/05/19 00:33:38;;;;;;;6.25;4.82;;;;;;;9.40;67.61;100761.19;686631;28;20264;-63
2021/05/19 00:33:59;;;;;;;5.53;4.85;;;;;;;9.38;67.60;100758.66;686042;28;46359;-62
2021/05/19 00:34:20;;;;;;;5.38;4.88;;;;;;;9.38;67.90;100757.84;686939;28;23513;-62
2021/05/19 00:34:41;;;;;;;5.68;5.05;;;;;;;9.36;67.80;100767.97;686790;28;20893;-62
2021/05/19 00:35:03;;;;;;;6.93;4.95;;;;;;;9.34;67.94;100767.25;686863;28;22428;-63
2021/05/19 00:35:25;;;;;;;5.03;4.53;;;;;;;9.32;67.87;100767.44;687342;28;10093;-62
2021/05/19 00:35:46;;;;;;;6.47;4.78;;;;;;;9.31;67.88;100767.59;686052;28;46386;-62
2021/05/19 00:36:07;;;;;;;8.13;5.07;;;;;;;9.30;68.08;100768.63;687166;28;22547;-62
2021/05/19 00:36:28;;;;;;;7.32;5.03;;;;;;;9.27;68.21;100761.72;687053;28;22292;-61
2021/05/19 00:36:50;;;;;;;5.95;5.20;;;;;;;9.29;68.15;100766.94;686671;28;22478;-62
2021/05/19 00:37:11;;;;;;;7.55;5.07;;;;;;;9.29;68.19;100769.63;687471;28;874;-62
2021/05/19 00:37:33;;;;;;;7.43;5.13;;;;;;;9.28;68.14;100767.94;687762;28;941;-62
2021/05/19 00:37:54;;;;;;;6.57;4.93;;;;;;;9.28;68.26;100763.41;687285;28;819;-62
2021/05/19 00:38:15;;;;;;;5.40;4.70;;;;;;;9.29;68.14;100764.25;686931;28;18864;-62
2021/05/19 00:38:36;;;;;;;8.48;5.13;;;;;;;9.28;68.48;100770.63;685966;28;38480;-62
2021/05/19 00:38:58;;;;;;;7.18;5.10;;;;;;;9.29;68.21;100766.94;687161;28;19494;-62
2021/05/19 00:39:19;;;;;;;5.55;5.03;;;;;;;9.28;68.08;100763.41;686458;28;23449;-62
2021/05/19 00:39:40;;;;;;;5.47;4.82;;;;;;;9.28;68.26;100770.63;687396;28;23289;-63
2021/05/19 00:40:01;;;;;;;5.47;4.60;;;;;;;9.28;68.42;100766.09;687569;28;23434;-62
2021/05/19 00:40:22;;;;;;;6.50;4.97;;;;;;;9.28;68.36;100763.41;686596;28;46156;-61
2021/05/19 00:40:44;;;;;;;6.82;5.15;;;;;;;9.28;68.42;100766.09;688156;28;823;-62
2021/05/19 00:41:06;;;;;;;5.63;4.97;;;;;;;9.29;68.02;100762.38;686905;28;46309;-62
2021/05/19 00:41:27;;;;;;;5.72;4.78;;;;;;;9.30;68.03;100769.47;686384;28;46303;-63
2021/05/19 00:41:48;;;;;;;5.72;4.60;;;;;;;9.30;68.44;100765.94;687094;28;21531;-62
2021/05/19 00:42:11;;;;;;;6.35;4.90;;;;;;;9.29;68.13;100766.94;687521;28;21400;-62
2021/05/19 00:42:32;;;;;;;5.25;4.75;;;;;;;9.29;68.16;100761.53;686794;28;46325;-62
2021/05/19 00:42:53;;;;;;;6.35;5.13;;;;;;;9.29;68.15;100761.53;687603;28;22440;-62
2021/05/19 00:43:15;;;;;;;5.55;4.90;;;;;;;9.28;68.13;100766.09;686698;28;43752;-62
2021/05/19 00:43:37;;;;;;;5.07;4.68;;;;;;;9.26;68.31;100760.00;685996;28;46321;-62
2021/05/19 00:44:04;;;;;;;4.80;4.38;;;;;;;9.26;68.26;100762.72;686563;28;44402;-62
2021/05/19 00:44:25;;;;;;;9.73;5.13;;;;;;;9.25;68.08;100766.44;683399;28;135986;-61
2021/05/19 00:44:46;;;;;;;8.50;5.15;;;;;;;9.25;68.59;100761.03;687491;28;22299;-62
2021/05/19 00:45:09;;;;;;;5.50;4.85;;;;;;;9.25;68.38;100761.03;689305;28;23520;-62
2021/05/19 00:45:31;;;;;;;5.80;5.20;;;;;;;9.25;68.55;100761.03;687713;28;70109;-62
2021/05/19 00:45:52;;;;;;;5.15;4.70;;;;;;;9.25;68.41;100758.34;689757;28;22441;-62
2021/05/19 00:46:13;;;;;;;5.60;4.55;;;;;;;9.27;68.46;100760.88;686281;28;41159;-62
2021/05/19 00:46:35;;;;;;;5.53;4.53;;;;;;;9.26;68.13;100765.41;687402;28;20703;-62
2021/05/19 00:46:56;;;;;;;5.68;4.78;;;;;;;9.27;68.17;100761.72;686831;28;22464;-62
2021/05/19 00:47:30;;;;;;;5.80;4.88;;;;;;;9.29;68.29;100765.06;686598;28;43739;-62
2021/05/19 00:47:51;;;;;;;6.13;4.82;;;;;;;9.30;68.12;100768.63;681737;28;118282;-62
2021/05/19 00:48:12;;;;;;;5.07;4.60;;;;;;;9.30;67.98;100758.69;686455;28;1422;-63
2021/05/19 00:48:35;;;;;;;4.85;4.45;;;;;;;9.31;68.07;100762.22;684682;28;20826;-62
2021/05/19 00:48:56;;;;;;;5.43;4.72;;;;;;;9.30;68.19;100765.94;687304;28;45292;-62
2021/05/19 00:49:17;;;;;;;5.32;4.53;;;;;;;9.31;68.12;100759.50;684609;28;4041;-62
2021/05/19 00:49:39;;;;;;;5.20;4.70;;;;;;;9.31;68.06;100768.47;682193;28;47041;-62
2021/05/19 00:50:01;;;;;;;5.38;4.85;;;;;;;9.29;68.31;100765.06;680887;29;45181;-62
2021/05/19 00:50:25;;;;;;;4.88;4.47;;;;;;;9.31;67.90;100764.91;681576;29;23397;-61
2021/05/19 00:50:46;;;;;;;4.75;4.28;;;;;;;9.30;68.28;100758.69;678406;29;113762;-62
2021/05/19 00:51:08;;;;;;;5.63;4.45;;;;;;;9.30;67.61;100763.25;681914;28;46467;-62
2021/05/19 00:51:30;;;;;;;4.63;4.22;;;;;;;9.29;67.75;100762.38;684821;28;45320;-60
2021/05/19 00:51:51;;;;;;;4.35;4.05;;;;;;;9.27;67.69;100767.09;685204;28;44441;-63
2021/05/19 00:52:12;;;;;;;4.88;4.47;;;;;;;9.27;67.95;100764.41;688581;28;22396;-62
2021/05/19 00:52:34;;;;;;;5.10;4.60;;;;;;;9.25;67.62;100761.03;688022;28;22215;-62
2021/05/19 00:52:55;;;;;;;5.22;4.35;;;;;;;9.25;67.62;100761.03;688317;28;22461;-62
2021/05/19 00:53:17;;;;;;;5.28;4.78;;;;;;;9.24;67.84;100755.81;687506;28;46766;-63
2021/05/19 00:53:38;;;;;;;6.28;5.10;;;;;;;9.23;68.02;100768.44;684357;28;37669;-62
2021/05/19 00:53:59;;;;;;;5.28;4.50;;;;;;;9.22;67.89;100761.38;683804;28;863;-62
2021/05/19 00:54:21;;;;;;;5.47;4.45;;;;;;;9.19;68.19;100761.72;683938;28;21531;-62
2021/05/19 00:54:42;;;;;;;5.07;4.43;;;;;;;9.21;67.84;100765.06;683172;28;21519;-63
2021/05/19 00:55:05;;;;;;;4.88;4.38;;;;;;;9.22;68.00;100766.78;683421;28;23062;-62
2021/05/19 00:55:27;;;;;;;5.05;4.47;;;;;;;9.22;67.94;100768.63;682263;28;70251;-62
2021/05/19 00:55:48;;;;;;;5.47;4.65;;;;;;;9.20;68.20;100766.94;686124;28;21551;-61
2021/05/19 00:56:10;;;;;;;5.13;4.57;;;;;;;9.18;67.84;100763.56;687129;28;930;-61
2021/05/19 00:56:40;;;;;;;6.07;4.35;;;;;;;9.18;68.28;100770.78;687693;28;61748;-62
2021/05/19 00:57:01;;;;;;;6.75;4.53;;;;;;;9.17;67.97;100767.28;684687;28;69532;-63
2021/05/19 00:57:22;;;;;;;5.72;4.68;;;;;;;9.17;68.40;100761.88;686072;28;47645;-62
2021/05/19 00:57:45;;;;;;;6.75;4.88;;;;;;;9.18;68.28;100762.72;687848;28;1220;-62
2021/05/19 00:58:08;;;;;;;5.38;4.53;;;;;;;9.17;68.19;100759.19;684448;28;86630;-61
2021/05/19 00:58:34;;;;;;;4.65;4.25;;;;;;;9.16;67.99;100764.75;679415;28;159258;-61
2021/05/19 00:58:59;;;;;;;5.07;4.57;;;;;;;9.15;68.29;100765.75;683596;28;44324;-62
2021/05/19 00:59:21;;;;;;;5.47;4.97;;;;;;;9.16;68.29;100770.13;681457;28;75525;-62
2021/05/19 00:59:51;;;;;;;5.78;4.68;;;;;;;9.16;68.30;100767.44;683301;28;60365;-62
2021/05/19 01:00:20;;;;;;;6.35;4.75;;;;;;;9.17;68.41;100769.13;679861;28;138719;-62
2021/05/19 01:00:50;;;;;;;4.75;4.30;;;;;;;9.17;68.08;100763.75;685633;28;60382;-62
2021/05/19 01:01:33;;;;;;;4.93;4.43;;;;;;;9.17;68.13;100763.75;683444;28;121656;-61
2021/05/19 01:02:01;;;;;;;8.45;4.78;;;;;;;9.16;68.46;100765.56;682958;28;135429;-62
2021/05/19 01:02:22;;;;;;;6.10;4.90;;;;;;;9.13;68.74;100767.78;687091;28;22279;-61
2021/05/19 01:02:44;;;;;;;5.63;4.65;;;;;;;9.12;68.39;100760.69;686250;28;45339;-62
2021/05/19 01:03:06;;;;;;;4.60;4.20;;;;;;;9.11;68.69;100767.09;687609;28;14270;-61
2021/05/19 01:03:28;;;;;;;5.10;4.60;;;;;;;9.11;68.46;100767.09;687851;28;43895;-61
2021/05/19 01:03:49;;;;;;;4.88;4.47;;;;;;;9.11;68.61;100765.25;688783;28;46325;-61
2021/05/19 01:04:18;;;;;;;5.72;4.82;;;;;;;9.12;68.38;100766.06;682697;28;137885;-62
2021/05/19 01:04:51;;;;;;;5.47;4.97;;;;;;;9.13;68.48;100759.69;680953;28;158985;-62
2021/05/19 01:05:25;;;;;;;5.82;4.90;;;;;;;9.10;68.37;100758.16;682723;28;102272;-61
2021/05/19 01:05:58;;;;;;;5.70;4.45;;;;;;;9.09;68.69;100761.00;681242;28;120184;-62
2021/05/19 01:06:30;;;;;;;5.65;4.32;;;;;;;9.06;68.63;100764.03;685761;28;60556;-63
2021/05/19 01:06:56;;;;;;;5.75;4.60;;;;;;;9.05;68.79;100760.53;684845;28;138091;-62
2021/05/19 01:07:23;;;;;;;4.65;4.13;;;;;;;9.06;68.56;100769.44;683037;28;138040;-62
2021/05/19 01:09:40;;;;;;;5.25;4.78;;;;;;;9.04;68.76;100771.47;681222;28;155619;-59
2021/05/19 01:10:01;;;;;;;5.03;4.53;;;;;;;9.02;68.48;100767.06;687230;28;22400;-62
2021/05/19 01:10:24;;;;;;;5.65;4.50;;;;;;;9.02;68.82;100769.75;690267;28;2463;-62
2021/05/19 01:10:47;;;;;;;4.65;4.20;;;;;;;9.00;68.69;100763.72;689840;28;962;-62
2021/05/19 01:11:10;;;;;;;4.95;4.50;;;;;;;8.98;68.82;100771.13;687345;28;3401;-62
2021/05/19 01:11:31;;;;;;;4.97;4.57;;;;;;;8.97;68.86;100768.59;687366;28;14898;-63
2021/05/19 01:11:52;;;;;;;4.97;4.20;;;;;;;8.93;68.96;100770.75;687481;28;2109;-62
2021/05/19 01:12:16;;;;;;;5.60;4.35;;;;;;;8.92;69.04;100774.47;687458;28;19342;-63
2021/05/19 01:12:38;;;;;;;5.05;4.60;;;;;;;8.94;69.08;100768.94;684519;28;90246;-62
2021/05/19 01:12:59;;;;;;;6.93;4.78;;;;;;;8.92;69.14;100769.09;687310;28;19699;-61
2021/05/19 01:13:20;;;;;;;4.95;4.55;;;;;;;8.92;69.20;100765.53;687520;28;20750;-61
2021/05/19 01:13:43;;;;;;;4.90;4.40;;;;;;;8.90;69.29;100768.41;686648;28;40636;-62
2021/05/19 01:14:05;;;;;;;5.25;4.22;;;;;;;8.90;69.26;100767.56;686832;28;30961;-62
2021/05/19 01:14:26;;;;;;;4.88;4.32;;;;;;;8.90;69.04;100773.78;685912;28;67496;-60
2021/05/19 01:14:48;;;;;;;5.20;4.68;;;;;;;8.89;69.29;100769.41;689244;28;23575;-62
2021/05/19 01:15:12;;;;;;;5.65;4.57;;;;;;;8.89;69.45;100771.28;688918;28;42463;-62
2021/05/19 01:15:35;;;;;;;4.63;4.22;;;;;;;8.90;69.61;100770.25;686687;28;88807;-62
2021/05/19 01:15:56;;;;;;;5.30;4.38;;;;;;;8.89;69.40;100766.72;686058;28;45272;-62
2021/05/19 01:16:17;;;;;;;4.80;4.30;;;;;;;8.89;69.51;100772.13;686882;28;23325;-63
2021/05/19 01:16:38;;;;;;;4.55;4.25;;;;;;;8.91;69.46;100771.94;687225;28;22417;-63
2021/05/19 01:16:59;;;;;;;6.45;5.13;;;;;;;8.90;69.59;100773.78;687023;28;19493;-62
2021/05/19 01:17:21;;;;;;;5.70;4.45;;;;;;;8.91;69.21;100771.94;688089;28;901;-61
2021/05/19 01:17:42;;;;;;;4.90;4.45;;;;;;;8.93;69.53;100775.31;686291;28;46383;-60
2021/05/19 01:18:05;;;;;;;4.78;4.38;;;;;;;8.94;69.37;100775.16;687054;28;20838;-61
2021/05/19 01:18:26;;;;;;;5.05;4.55;;;;;;;8.96;69.27;100769.59;686880;28;24782;-63
2021/05/19 01:18:48;;;;;;;5.35;4.85;;;;;;;8.96;69.40;100769.59;686706;28;46323;-61
2021/05/19 01:19:09;;;;;;;5.03;4.47;;;;;;;8.96;69.35;100773.13;687558;28;13568;-62
2021/05/19 01:19:30;;;;;;;5.20;4.38;;;;;;;8.95;68.92;100774.16;686798;28;15790;-62
2021/05/19 01:19:53;;;;;;;4.80;4.38;;;;;;;8.96;68.93;100778.50;686628;28;46771;-62
2021/05/19 01:20:15;;;;;;;4.85;4.38;;;;;;;8.96;69.17;100772.28;686210;28;46382;-61
2021/05/19 01:20:36;;;;;;;4.80;4.40;;;;;;;8.96;68.93;100780.38;686643;28;46348;-61
2021/05/19 01:20:58;;;;;;;4.95;4.40;;;;;;;8.94;69.04;100775.16;686537;28;46313;-62
2021/05/19 01:21:20;;;;;;;5.25;4.72;;;;;;;8.94;68.83;100777.84;686379;28;45253;-62
2021/05/19 01:21:42;;;;;;;4.55;4.15;;;;;;;8.96;69.13;100783.06;687231;28;22411;-61
2021/05/19 01:22:07;;;;;;;6.15;4.63;;;;;;;8.94;69.00;100777.00;688514;28;43725;-62
2021/05/19 01:22:29;;;;;;;5.10;4.60;;;;;;;8.95;68.71;100778.66;685533;28;137973;-62
2021/05/19 01:22:50;;;;;;;4.90;4.40;;;;;;;8.95;68.90;100773.28;688843;28;44177;-62
2021/05/19 01:23:11;;;;;;;7.82;4.63;;;;;;;8.94;68.71;100777.00;689083;28;46085;-62
2021/05/19 01:23:33;;;;;;;7.03;4.43;;;;;;;8.93;68.81;100775.31;689653;28;21423;-60
2021/05/19 01:23:54;;;;;;;7.63;4.55;;;;;;;8.93;69.03;100770.75;687077;28;24756;-60
2021/05/19 01:24:16;;;;;;;4.80;4.35;;;;;;;8.93;68.91;100781.53;686059;28;46355;-62
2021/05/19 01:24:38;;;;;;;4.75;4.35;;;;;;;8.92;68.57;100781.69;686840;28;21525;-62
2021/05/19 01:25:00;;;;;;;5.00;4.60;;;;;;;8.92;69.06;100779.88;682735;28;69447;-62
2021/05/19 01:25:22;;;;;;;5.00;4.40;;;;;;;8.92;68.65;100779.00;684113;28;21523;-62
2021/05/19 01:25:43;;;;;;;5.07;4.32;;;;;;;8.90;68.90;100775.63;684626;28;38352;-61
2021/05/19 01:26:07;;;;;;;6.50;4.50;;;;;;;8.91;68.78;100778.16;686356;28;46399;-61
2021/05/19 01:26:28;;;;;;;4.90;4.45;;;;;;;8.89;69.02;100774.81;686643;28;30129;-62
2021/05/19 01:26:49;;;;;;;4.97;4.40;;;;;;;8.88;68.95;100781.19;686621;28;22954;-61
2021/05/19 01:27:12;;;;;;;7.20;4.50;;;;;;;8.88;68.87;100775.81;686351;28;45308;-62
2021/05/19 01:27:33;;;;;;;5.05;4.53;;;;;;;8.86;68.91;100777.00;682457;28;67621;-62
2021/05/19 01:27:57;;;;;;;4.95;4.45;;;;;;;8.86;68.76;100774.31;684938;28;11184;-61
2021/05/19 01:28:18;;;;;;;4.45;4.10;;;;;;;8.83;68.73;100787.06;682567;28;69442;-61
2021/05/19 01:28:39;;;;;;;4.47;4.13;;;;;;;8.83;68.87;100786.25;683730;28;22414;-60
2021/05/19 01:29:01;;;;;;;6.60;4.22;;;;;;;8.83;69.12;100784.38;684533;28;44387;-62
2021/05/19 01:29:22;;;;;;;7.20;4.43;;;;;;;8.82;68.81;100780.03;685921;28;44258;-60
2021/05/19 01:29:46;;;;;;;5.97;4.70;;;;;;;8.82;69.00;100773.78;687215;28;44877;-62
2021/05/19 01:30:09;;;;;;;5.30;4.35;;;;;;;8.79;69.44;100777.66;684112;28;90639;-63
2021/05/19 01:30:33;;;;;;;5.23;4.33;;;;;;;8.79;69.36;100780.34;684941;28;90242;-63
2021/05/19 01:30:54;;;;;;;5.93;4.72;;;;;;;8.79;69.68;100783.03;687378;28;88942;-62
2021/05/19 01:31:16;;;;;;;5.07;4.60;;;;;;;8.79;69.76;100780.34;689514;28;22480;-61
2021/05/19 01:31:38;;;;;;;5.50;4.65;;;;;;;8.79;69.26;100780.34;688836;28;43009;-62
2021/05/19 01:31:59;;;;;;;5.40;4.28;;;;;;;8.78;69.51;100778.66;689313;28;21547;-62
2021/05/19 01:32:22;;;;;;;4.85;4.30;;;;;;;8.78;69.52;100781.34;689507;28;31492;-62
2021/05/19 01:32:43;;;;;;;5.35;4.75;;;;;;;8.77;69.93;100776.13;687761;28;45443;-63
2021/05/19 01:33:05;;;;;;;6.07;4.65;;;;;;;8.76;69.85;100777.97;687010;28;22491;-61
2021/05/19 01:33:30;;;;;;;5.22;4.72;;;;;;;8.78;69.76;100777.81;688167;28;61074;-61
2021/05/19 01:33:51;;;;;;;5.57;4.80;;;;;;;8.78;70.01;100780.50;689538;28;23559;-62
2021/05/19 01:34:13;;;;;;;5.38;4.70;;;;;;;8.79;69.72;100776.78;687809;28;46415;-62
2021/05/19 01:34:36;;;;;;;4.55;4.15;;;;;;;8.79;69.71;100787.56;687558;28;44439;-62
2021/05/19 01:34:57;;;;;;;4.82;4.43;;;;;;;8.80;69.92;100781.19;687342;28;46316;-62
2021/05/19 01:35:19;;;;;;;4.90;4.45;;;;;;;8.79;69.94;100776.78;687220;28;45082;-62
2021/05/19 01:35:41;;;;;;;5.45;4.90;;;;;;;8.79;69.69;100777.66;687929;28;22329;-62
2021/05/19 01:36:03;;;;;;;5.22;4.72;;;;;;;8.79;69.88;100777.66;686914;28;46437;-62
2021/05/19 01:36:24;;;;;;;5.07;4.50;;;;;;;8.80;69.69;100784.72;687749;28;30387;-63
2021/05/19 01:36:46;;;;;;;5.53;4.82;;;;;;;8.80;69.67;100770.41;687171;28;46578;-62
2021/05/19 01:37:11;;;;;;;5.30;4.80;;;;;;;8.79;69.75;100780.34;688060;28;21029;-61
2021/05/19 01:37:33;;;;;;;6.80;4.65;;;;;;;8.79;69.79;100780.34;684802;28;113680;-62
2021/05/19 01:37:55;;;;;;;5.10;4.38;;;;;;;8.81;69.60;100772.09;684381;28;46445;-62
2021/05/19 01:38:16;;;;;;;4.82;4.40;;;;;;;8.79;69.78;100771.41;683626;28;46471;-62
2021/05/19 01:38:38;;;;;;;5.80;4.55;;;;;;;8.80;69.71;100771.25;684972;28;46297;-62
2021/05/19 01:38:59;;;;;;;5.03;4.40;;;;;;;8.79;69.74;100766.03;687773;28;1341;-62
2021/05/19 01:39:21;;;;;;;5.15;4.65;;;;;;;8.80;69.64;100781.19;684136;28;1034;-62
2021/05/19 01:39:43;;;;;;;5.05;4.55;;;;;;;8.82;69.81;100773.78;685099;28;4423;-63
2021/05/19 01:40:06;;;;;;;5.45;4.32;;;;;;;8.81;69.67;100770.25;685905;28;44674;-62
2021/05/19 01:40:27;;;;;;;5.00;4.50;;;;;;;8.82;69.70;100771.06;685310;28;60943;-61
2021/05/19 01:40:50;;;;;;;4.90;4.47;;;;;;;8.82;69.92;100782.72;683256;28;43591;-60
2021/05/19 01:41:11;;;;;;;5.10;4.60;;;;;;;8.83;70.13;100773.59;685594;28;46469;-61
2021/05/19 01:41:36;;;;;;;5.32;4.82;;;;;;;8.84;69.92;100780.69;684530;28;115324;-62
2021/05/19 01:41:58;;;;;;;5.40;4.90;;;;;;;8.85;69.82;100773.44;685424;28;23470;-62
2021/05/19 01:42:20;;;;;;;4.85;4.40;;;;;;;8.86;70.10;100771.63;685040;28;945;-62
2021/05/19 01:42:45;;;;;;;4.88;4.38;;;;;;;8.86;69.88;100772.44;682597;28;15031;-62
2021/05/19 01:43:14;;;;;;;5.13;4.63;;;;;;;8.84;69.86;100769.09;677324;28;136081;-62
2021/05/19 01:43:47;;;;;;;5.60;5.07;;;;;;;8.85;70.00;100776.13;677807;28;158771;-62
2021/05/19 01:44:19;;;;;;;4.60;4.30;;;;;;;8.89;69.87;100782.06;680516;28;136076;-61
2021/05/19 01:44:54;;;;;;;5.10;4.57;;;;;;;8.89;70.03;100782.88;682832;28;136283;-62
2021/05/19 01:45:30;;;;;;;5.28;4.43;;;;;;;8.92;70.17;100779.88;686387;28;117721;-62
2021/05/19 01:45:51;;;;;;;4.80;4.40;;;;;;;8.93;69.77;100780.69;689747;28;21500;-62
2021/05/19 01:46:13;;;;;;;5.10;4.60;;;;;;;8.91;70.08;100782.72;688454;28;22406;-62
2021/05/19 01:46:34;;;;;;;5.57;4.50;;;;;;;8.91;69.68;100783.56;686519;28;46410;-62
2021/05/19 01:46:55;;;;;;;4.80;4.30;;;;;;;8.91;69.57;100780.88;686979;28;23476;-61
2021/05/19 01:47:19;;;;;;;4.57;4.18;;;;;;;8.93;69.80;100783.38;687067;28;22484;-63
2021/05/19 01:47:42;;;;;;;5.00;4.50;;;;;;;8.93;69.57;100786.91;684782;28;92301;-62
2021/05/19 01:48:04;;;;;;;5.47;4.80;;;;;;;8.93;70.02;100786.09;685520;28;69540;-62
2021/05/19 01:48:26;;;;;;;6.88;5.15;;;;;;;8.92;69.70;100785.25;686020;28;46292;-62
2021/05/19 01:48:52;;;;;;;5.63;4.87;;;;;;;8.93;69.52;100783.38;686174;28;46323;-61
2021/05/19 01:49:14;;;;;;;4.90;4.50;;;;;;;8.92;69.92;100779.88;683083;28;136792;-62